createdAt,value
2023-09-20T00:01:11.576Z,3.03
2023-09-20T00:04:37.050Z,2.22
2023-09-20T00:07:59.877Z,2.08
2023-09-20T00:11:22.124Z,2.00
2023-09-20T00:14:45.436Z,1.67
2023-09-20T00:18:07.229Z,2.28
2023-09-20T00:21:28.873Z,2.55
2023-09-20T00:24:50.325Z,2.67
2023-09-20T00:28:12.795Z,2.22
2023-09-20T00:31:35.946Z,1.92
2023-09-20T00:34:57.774Z,2.20
2023-09-20T00:38:19.641Z,2.70
2023-09-20T00:41:42.506Z,2.53
2023-09-20T00:45:05.009Z,2.00
2023-09-20T00:48:30.636Z,1.92
2023-09-20T00:51:52.597Z,2.33
2023-09-20T00:55:18.077Z,2.35
2023-09-20T00:58:41.039Z,2.50
2023-09-20T01:02:05.173Z,1.80
2023-09-20T01:05:29.161Z,2.78
2023-09-20T01:08:50.833Z,2.22
2023-09-20T01:12:12.360Z,2.60
2023-09-20T01:15:35.894Z,3.63
2023-09-20T01:18:57.539Z,3.25
2023-09-20T01:22:20.937Z,3.17
2023-09-20T01:25:44.843Z,2.90
2023-09-20T01:29:06.815Z,2.55
2023-09-20T01:32:28.769Z,2.67
2023-09-20T01:35:50.331Z,2.63
2023-09-20T01:39:13.651Z,2.58
2023-09-20T01:42:35.599Z,2.92
2023-09-20T01:45:57.377Z,3.33
2023-09-20T01:49:19.829Z,3.20
2023-09-20T01:52:43.136Z,2.92
2023-09-20T01:56:06.484Z,2.95
2023-09-20T01:59:28.223Z,2.88
2023-09-20T02:02:50.296Z,3.05
2023-09-20T02:06:12.619Z,3.10
2023-09-20T02:09:36.144Z,3.33
2023-09-20T02:13:00.418Z,3.28
2023-09-20T02:16:22.597Z,3.22
2023-09-20T02:19:47.094Z,3.38
2023-09-20T02:23:13.854Z,3.40
2023-09-20T02:26:38.348Z,2.75
2023-09-20T02:30:01.699Z,2.95
2023-09-20T02:33:23.357Z,3.03
2023-09-20T02:36:46.133Z,3.33
2023-09-20T02:40:14.272Z,3.08
2023-09-20T02:43:36.011Z,3.60
2023-09-20T02:47:00.362Z,3.17
2023-09-20T02:50:25.084Z,2.88
2023-09-20T02:53:46.674Z,2.85
2023-09-20T02:57:08.798Z,2.83
2023-09-20T03:00:33.275Z,2.70
2023-09-20T03:03:57.781Z,3.05
2023-09-20T03:07:19.732Z,2.95
2023-09-20T03:10:43.019Z,2.60
2023-09-20T03:14:09.631Z,3.15
2023-09-20T03:17:33.381Z,3.05
2023-09-20T03:20:58.011Z,2.67
2023-09-20T03:24:19.628Z,2.55
2023-09-20T03:27:43.903Z,3.45
2023-09-20T03:31:09.009Z,2.70
2023-09-20T03:34:31.784Z,3.13
2023-09-20T03:37:54.793Z,2.80
2023-09-20T03:41:16.516Z,2.10
2023-09-20T03:44:40.244Z,3.83
2023-09-20T03:48:02.934Z,2.47
2023-09-20T03:51:24.638Z,2.70
2023-09-20T03:54:51.427Z,2.97
2023-09-20T03:58:13.518Z,2.83
2023-09-20T04:01:37.986Z,2.67
2023-09-20T04:05:01.569Z,2.65
2023-09-20T04:08:23.595Z,3.00
2023-09-20T04:11:46.973Z,3.20
2023-09-20T04:15:11.100Z,2.78
2023-09-20T04:18:34.487Z,3.28
2023-09-20T04:21:57.223Z,2.95
2023-09-20T04:25:19.614Z,2.55
2023-09-20T04:28:43.020Z,2.78
2023-09-20T04:32:05.651Z,2.40
2023-09-20T04:35:27.680Z,2.22
2023-09-20T04:38:49.650Z,2.40
2023-09-20T04:42:14.285Z,2.70
2023-09-20T04:45:37.428Z,2.83
2023-09-20T04:49:00.368Z,2.63
2023-09-20T04:52:23.296Z,2.47
2023-09-20T04:55:45.071Z,3.47
2023-09-20T04:59:09.817Z,2.85
2023-09-20T05:02:33.486Z,2.97
2023-09-20T05:05:55.360Z,3.33
2023-09-20T05:09:16.906Z,2.90
2023-09-20T05:12:39.413Z,2.63
2023-09-20T05:16:01.394Z,3.75
2023-09-20T05:19:25.242Z,3.88
2023-09-20T05:22:47.061Z,2.92
2023-09-20T05:26:09.713Z,4.18
2023-09-20T05:29:31.927Z,2.70
2023-09-20T05:32:54.898Z,2.60
2023-09-20T05:36:22.434Z,2.95
2023-09-20T05:39:49.070Z,2.65
2023-09-20T05:43:10.964Z,2.65
2023-09-20T05:46:32.897Z,3.63
2023-09-20T05:49:55.023Z,3.30
2023-09-20T05:53:18.361Z,3.22
2023-09-20T05:56:40.475Z,3.03
2023-09-20T06:00:10.317Z,3.75
2023-09-20T06:03:32.342Z,2.80
2023-09-20T06:06:55.444Z,3.40
2023-09-20T06:10:19.792Z,2.72
2023-09-20T06:13:41.861Z,2.50
2023-09-20T06:17:03.699Z,3.10
2023-09-20T06:20:25.818Z,2.80
2023-09-20T06:23:47.853Z,2.58
2023-09-20T06:27:11.138Z,3.22
2023-09-20T06:30:32.736Z,3.20
2023-09-20T06:33:54.355Z,2.53
2023-09-20T06:37:16.328Z,3.30
2023-09-20T06:40:40.154Z,3.33
2023-09-20T06:44:04.325Z,3.00
2023-09-20T06:47:26.324Z,2.88
2023-09-20T06:50:48.469Z,3.90
2023-09-20T06:54:10.395Z,3.05
2023-09-20T06:57:34.469Z,2.60
2023-09-20T07:00:57.591Z,2.55
2023-09-20T07:04:20.313Z,2.85
2023-09-20T07:07:43.619Z,3.10
2023-09-20T07:11:06.068Z,3.40
2023-09-20T07:14:27.691Z,3.17
2023-09-20T07:18:00.071Z,2.80
2023-09-20T07:21:22.314Z,2.90
2023-09-20T07:24:47.098Z,3.05
2023-09-20T07:28:11.097Z,3.03
2023-09-20T07:31:38.236Z,3.25
2023-09-20T07:35:05.143Z,3.10
2023-09-20T07:38:29.486Z,2.60
2023-09-20T07:41:52.618Z,2.67
2023-09-20T07:45:14.676Z,2.70
2023-09-20T07:48:39.751Z,2.38
2023-09-20T07:52:05.699Z,3.08
2023-09-20T07:55:28.631Z,3.33
2023-09-20T07:58:50.666Z,3.00
2023-09-20T08:02:13.590Z,2.90
2023-09-20T08:05:35.663Z,2.75
2023-09-20T08:08:59.289Z,3.03
2023-09-20T08:12:21.223Z,3.00
2023-09-20T08:15:45.020Z,3.08
2023-09-20T08:19:08.174Z,3.15
2023-09-20T08:22:47.418Z,3.13
2023-09-20T08:26:27.748Z,2.88
2023-09-20T08:30:07.422Z,3.22
2023-09-20T08:33:46.241Z,2.70
2023-09-20T08:37:26.008Z,4.30
2023-09-20T08:41:05.268Z,4.60
2023-09-20T08:44:46.117Z,4.53
2023-09-20T08:48:29.824Z,3.55
2023-09-20T08:52:12.889Z,3.38
2023-09-20T08:55:51.997Z,3.22
2023-09-20T08:59:31.866Z,2.80
2023-09-20T09:02:58.195Z,2.28
2023-09-20T09:06:20.422Z,3.13
2023-09-20T09:09:42.908Z,2.92
2023-09-20T09:13:04.614Z,3.15
2023-09-20T09:16:27.599Z,3.47
2023-09-20T09:19:51.078Z,2.90
2023-09-20T09:23:12.757Z,3.38
2023-09-20T09:26:34.613Z,3.30
2023-09-20T09:29:56.258Z,3.28
2023-09-20T09:33:18.830Z,2.78
2023-09-20T09:36:42.581Z,2.80
2023-09-20T09:40:05.309Z,3.30
2023-09-20T09:43:29.117Z,2.78
2023-09-20T09:46:51.772Z,4.20
2023-09-20T09:50:14.867Z,3.47
2023-09-20T09:53:40.682Z,2.70
2023-09-20T09:57:03.057Z,3.58
2023-09-20T10:00:27.792Z,3.50
2023-09-20T10:03:52.903Z,2.78
2023-09-20T10:07:17.863Z,3.30
2023-09-20T10:10:43.001Z,3.13
2023-09-20T10:14:09.140Z,2.83
2023-09-20T10:17:31.927Z,2.88
2023-09-20T10:21:06.415Z,3.15
2023-09-20T10:24:30.142Z,2.53
2023-09-20T10:27:54.974Z,3.88
2023-09-20T10:31:17.772Z,2.97
2023-09-20T10:34:40.010Z,2.67
2023-09-20T10:38:26.887Z,2.80
2023-09-20T10:41:50.706Z,3.38
2023-09-20T10:45:21.078Z,3.75
2023-09-20T10:48:49.918Z,2.80
2023-09-20T10:52:11.873Z,2.85
2023-09-20T10:55:36.944Z,2.60
2023-09-20T10:59:01.238Z,2.38
2023-09-20T11:02:27.009Z,3.25
2023-09-20T11:05:49.145Z,2.60
2023-09-20T11:09:12.897Z,2.47
2023-09-20T11:12:35.576Z,2.53
2023-09-20T11:16:01.321Z,2.65
2023-09-20T11:19:24.735Z,2.58
2023-09-20T11:22:47.164Z,2.70
2023-09-20T11:26:10.088Z,3.20
2023-09-20T11:29:32.565Z,2.78
2023-09-20T11:32:54.445Z,3.38
2023-09-20T11:36:20.660Z,2.72
2023-09-20T11:39:44.860Z,2.60
2023-09-20T11:43:07.289Z,2.80
2023-09-20T11:46:30.469Z,3.70
2023-09-20T11:49:52.925Z,3.13
2023-09-20T11:53:17.300Z,2.90
2023-09-20T11:56:39.959Z,2.92
2023-09-20T12:00:02.575Z,3.03
2023-09-20T12:03:24.402Z,2.92
2023-09-20T12:06:47.068Z,5.72
2023-09-20T12:10:11.273Z,2.78
2023-09-20T12:13:33.104Z,3.22
2023-09-20T12:16:57.278Z,2.65
2023-09-20T12:20:18.990Z,2.92
2023-09-20T12:23:41.417Z,3.65
2023-09-20T12:27:06.527Z,3.25
2023-09-20T12:30:29.982Z,2.92
2023-09-20T12:33:52.516Z,2.45
2023-09-20T12:37:15.099Z,3.35
2023-09-20T12:40:37.505Z,2.90
2023-09-20T12:44:00.367Z,14.75
2023-09-20T12:47:23.429Z,9.60
2023-09-20T12:50:45.812Z,6.05
2023-09-20T12:54:07.619Z,6.70
2023-09-20T12:57:29.753Z,5.55
2023-09-20T13:00:52.998Z,8.43
2023-09-20T13:04:15.264Z,8.02
2023-09-20T13:07:37.064Z,3.25
2023-09-20T13:10:59.007Z,6.95
2023-09-20T13:14:21.286Z,10.57
2023-09-20T13:17:45.860Z,27.55
2023-09-20T13:21:08.422Z,15.30
2023-09-20T13:24:30.817Z,7.88
2023-09-20T13:27:52.753Z,7.80
2023-09-20T13:31:14.986Z,5.55
2023-09-20T13:34:39.420Z,8.77
2023-09-20T13:38:00.901Z,7.97
2023-09-20T13:41:23.254Z,6.18
2023-09-20T13:44:47.029Z,11.48
2023-09-20T13:48:09.122Z,4.45
2023-09-20T13:51:32.262Z,4.78
2023-09-20T13:54:55.673Z,4.15
2023-09-20T13:58:17.489Z,4.63
2023-09-20T14:01:40.746Z,4.90
2023-09-20T14:05:02.317Z,4.53
2023-09-20T14:08:25.409Z,5.38
2023-09-20T14:11:47.564Z,5.32
2023-09-20T14:15:12.611Z,4.68
2023-09-20T14:18:34.573Z,4.50
2023-09-20T14:21:56.617Z,4.22
2023-09-20T14:25:19.990Z,6.35
2023-09-20T14:28:43.537Z,4.65
2023-09-20T14:32:06.245Z,5.07
2023-09-20T14:35:28.451Z,4.30
2023-09-20T14:38:50.505Z,6.28
2023-09-20T14:42:14.152Z,5.45
2023-09-20T14:45:36.145Z,5.32
2023-09-20T14:48:58.828Z,7.18
2023-09-20T14:52:20.808Z,5.25
2023-09-20T14:55:43.007Z,4.55
2023-09-20T14:59:06.966Z,6.63
2023-09-20T15:02:28.886Z,5.15
2023-09-20T15:05:50.801Z,5.40
2023-09-20T15:09:16.468Z,3.70
2023-09-20T15:12:38.992Z,5.22
2023-09-20T15:16:02.232Z,6.03
2023-09-20T15:19:25.105Z,4.82
2023-09-20T15:22:47.403Z,4.03
2023-09-20T15:26:13.096Z,3.55
2023-09-20T15:29:35.049Z,3.80
2023-09-20T15:32:58.761Z,3.90
2023-09-20T15:36:21.813Z,3.78
2023-09-20T15:39:44.476Z,3.67
2023-09-20T15:43:07.486Z,3.22
2023-09-20T15:46:29.701Z,3.70
2023-09-20T15:49:52.526Z,4.22
2023-09-20T15:53:15.668Z,4.10
2023-09-20T15:56:39.938Z,4.00
2023-09-20T16:00:02.003Z,4.18
2023-09-20T16:03:24.276Z,4.57
2023-09-20T16:06:47.835Z,4.18
2023-09-20T16:10:15.619Z,3.88
2023-09-20T16:13:37.969Z,4.03
2023-09-20T16:17:00.886Z,3.92
2023-09-20T16:20:23.679Z,3.38
2023-09-20T16:23:50.275Z,4.57
2023-09-20T16:27:12.483Z,4.88
2023-09-20T16:30:34.516Z,5.25
2023-09-20T16:33:56.409Z,5.03
2023-09-20T16:37:18.125Z,4.45
2023-09-20T16:40:41.350Z,6.13
2023-09-20T16:44:02.995Z,4.53
2023-09-20T16:47:27.154Z,6.05
2023-09-20T16:50:50.725Z,5.13
2023-09-20T16:54:14.557Z,6.32
2023-09-20T16:57:37.814Z,4.82
2023-09-20T17:00:59.324Z,6.22
2023-09-20T17:04:21.019Z,5.20
2023-09-20T17:07:42.704Z,5.30
2023-09-20T17:11:04.330Z,6.13
2023-09-20T17:14:29.248Z,7.00
2023-09-20T17:17:50.936Z,5.50
2023-09-20T17:21:12.846Z,4.47
2023-09-20T17:24:35.012Z,4.47
2023-09-20T17:27:56.532Z,4.65
2023-09-20T17:31:19.573Z,4.88
2023-09-20T17:34:41.782Z,4.07
2023-09-20T17:38:03.828Z,4.50
2023-09-20T17:41:30.908Z,5.05
2023-09-20T17:44:53.028Z,4.00
2023-09-20T17:48:16.564Z,4.65
2023-09-20T17:51:38.582Z,4.28
2023-09-20T17:55:01.310Z,3.63
2023-09-20T17:58:23.349Z,3.72
2023-09-20T18:01:46.198Z,3.90
2023-09-20T18:05:11.008Z,3.45
2023-09-20T18:08:34.057Z,3.17
2023-09-20T18:11:55.846Z,4.13
2023-09-20T18:15:19.457Z,3.60
2023-09-20T18:18:41.642Z,3.60
2023-09-20T18:22:05.576Z,3.53
2023-09-20T18:25:27.744Z,3.30
2023-09-20T18:28:51.041Z,2.80
2023-09-20T18:32:12.620Z,2.90
2023-09-20T18:35:35.930Z,2.75
2023-09-20T18:39:00.377Z,2.50
2023-09-20T18:42:22.510Z,3.10
2023-09-20T18:45:45.535Z,2.50
2023-09-20T18:49:07.742Z,2.60
2023-09-20T18:52:29.603Z,3.05
2023-09-20T18:55:53.046Z,2.92
2023-09-20T18:59:15.267Z,3.05
2023-09-20T19:02:37.079Z,2.70
2023-09-20T19:06:01.370Z,2.83
2023-09-20T19:09:25.367Z,3.33
2023-09-20T19:12:48.722Z,3.63
2023-09-20T19:16:12.681Z,3.33
2023-09-20T19:19:35.387Z,3.15
2023-09-20T19:22:57.314Z,2.78
2023-09-20T19:26:20.766Z,3.33
2023-09-20T19:29:43.960Z,3.20
2023-09-20T19:33:06.847Z,2.42
2023-09-20T19:36:30.012Z,2.80
2023-09-20T19:39:52.022Z,3.03
2023-09-20T19:43:13.642Z,3.72
2023-09-20T19:46:36.976Z,2.63
2023-09-20T19:50:01.453Z,2.92
2023-09-20T19:53:27.795Z,3.03
2023-09-20T19:56:51.293Z,4.00
2023-09-20T20:00:25.783Z,2.83
2023-09-20T20:03:49.278Z,3.17
2023-09-20T20:07:26.818Z,3.47
2023-09-20T20:10:49.848Z,3.60
2023-09-20T20:14:11.627Z,3.83
2023-09-20T20:17:34.080Z,3.45
2023-09-20T20:21:03.985Z,3.40
2023-09-20T20:24:26.177Z,3.85
2023-09-20T20:27:49.350Z,3.30
2023-09-20T20:31:12.151Z,3.42
2023-09-20T20:34:38.115Z,3.22
2023-09-20T20:38:01.598Z,3.95
2023-09-20T20:41:23.541Z,3.53
2023-09-20T20:44:45.255Z,3.80
2023-09-20T20:52:54.867Z,3.08
2023-09-20T20:56:18.994Z,3.28
2023-09-20T20:59:41.769Z,3.30
2023-09-20T21:03:11.198Z,3.78
2023-09-20T21:06:35.963Z,3.70
2023-09-20T21:09:57.810Z,3.30
2023-09-20T21:13:22.846Z,3.33
2023-09-20T21:16:45.179Z,3.33
2023-09-20T21:20:21.587Z,2.80
2023-09-20T21:23:44.126Z,3.00
2023-09-20T21:27:06.622Z,3.67
2023-09-20T21:30:32.566Z,3.50
2023-09-20T21:33:54.342Z,3.47
2023-09-20T21:37:16.192Z,3.45
2023-09-20T21:40:39.555Z,4.10
2023-09-20T21:44:01.688Z,3.50
2023-09-20T21:47:24.768Z,4.22
2023-09-20T21:50:47.334Z,3.65
2023-09-20T21:54:09.423Z,3.97
2023-09-20T21:57:31.909Z,3.60
2023-09-20T22:00:53.577Z,3.88
2023-09-20T22:04:18.546Z,4.18
2023-09-20T22:07:40.817Z,3.42
2023-09-20T22:11:05.734Z,3.80
2023-09-20T22:14:27.441Z,4.10
2023-09-20T22:17:50.678Z,3.50
2023-09-20T22:21:14.140Z,3.63
2023-09-20T22:24:36.407Z,4.43
2023-09-20T22:27:58.503Z,3.88
2023-09-20T22:31:20.373Z,3.88
2023-09-20T22:34:42.041Z,4.32
2023-09-20T22:38:05.595Z,3.55
2023-09-20T22:41:27.145Z,3.90
2023-09-20T22:44:49.155Z,3.30
2023-09-20T22:48:11.281Z,4.05
2023-09-20T22:51:33.322Z,3.78
2023-09-20T22:54:56.223Z,3.30
2023-09-20T22:58:22.100Z,4.20
2023-09-20T23:01:45.004Z,4.00
2023-09-20T23:05:16.728Z,3.97
2023-09-20T23:08:39.707Z,3.72
2023-09-20T23:12:03.369Z,4.00
2023-09-20T23:15:27.290Z,4.25
2023-09-20T23:18:49.432Z,4.32
2023-09-20T23:22:18.053Z,3.95
2023-09-20T23:25:42.431Z,4.00
2023-09-20T23:29:06.573Z,4.25
2023-09-20T23:32:31.416Z,4.40
2023-09-20T23:35:56.008Z,4.75
2023-09-20T23:39:22.135Z,3.70
2023-09-20T23:42:44.364Z,4.05
2023-09-20T23:46:10.756Z,4.05
2023-09-20T23:49:32.586Z,4.03
2023-09-20T23:52:54.114Z,3.90
2023-09-20T23:56:18.753Z,4.00
2023-09-20T23:59:40.989Z,4.10
